Time;durP1;ratioP1;P1;durP2;ratioP2;P2;SDS_P1;SDS_P2;PMS_P1;PMS_P2;Temp;Humidity;BMP_temperature;BMP_pressure;BME280_temperature;BME280_humidity;BME280_pressure;Samples;Min_cycle;Max_cycle;Signal;HPM_P1;HPM_P2
2021/07/01 00:02:19;;;;;;;10.32;9.40;;;;;;;23.92;61.32;98795.03;1741697;82;21045;-44
2021/07/01 00:04:46;;;;;;;12.85;9.28;;;;;;;23.88;61.50;98786.12;1743284;81;21567;-45
2021/07/01 00:07:12;;;;;;;13.32;9.63;;;;;;;23.85;61.68;98771.83;1756307;81;21025;-45
2021/07/01 00:09:39;;;;;;;11.75;10.20;;;;;;;23.79;61.80;98764.75;1756704;81;20961;-45
2021/07/01 00:12:07;;;;;;;9.78;8.78;;;;;;;23.73;62.12;98763.83;1756389;81;20964;-44
2021/07/01 00:14:34;;;;;;;12.63;9.05;;;;;;;23.70;62.35;98768.91;1755090;81;21855;-44
2021/07/01 00:17:01;;;;;;;10.13;8.40;;;;;;;23.68;62.23;98771.36;1748908;81;21126;-45
2021/07/01 00:19:28;;;;;;;10.55;8.93;;;;;;;23.68;62.47;98756.14;1726116;83;20972;-44
2021/07/01 00:21:55;;;;;;;11.53;9.58;;;;;;;23.65;62.46;98748.78;1727007;81;21016;-45
2021/07/01 00:24:22;;;;;;;10.43;9.33;;;;;;;23.65;62.53;98753.54;1733308;81;21045;-45
2021/07/01 00:26:49;;;;;;;11.05;9.33;;;;;;;23.61;62.63;98738.48;1756585;81;21037;-44
2021/07/01 00:29:15;;;;;;;10.75;9.60;;;;;;;23.58;62.76;98731.09;1754953;81;21142;-45
2021/07/01 00:31:43;;;;;;;12.47;8.35;;;;;;;23.53;62.74;98720.64;1754696;81;20926;-45
2021/07/01 00:34:10;;;;;;;11.40;8.93;;;;;;;23.54;62.68;98713.87;1751216;81;21037;-45
2021/07/01 00:36:37;;;;;;;13.53;9.68;;;;;;;23.54;62.74;98713.11;1726313;83;21055;-45
2021/07/01 00:39:05;;;;;;;13.30;9.48;;;;;;;23.52;62.84;98719.13;1726604;83;21049;-45
2021/07/01 00:41:32;;;;;;;10.78;9.60;;;;;;;23.50;62.76;98725.72;1731217;81;21814;-44
2021/07/01 00:44:01;;;;;;;10.90;9.73;;;;;;;23.43;62.81;98723.22;1755268;80;21006;-45
2021/07/01 00:46:31;;;;;;;11.30;9.75;;;;;;;23.33;63.12;98730.00;1756756;81;20921;-45
2021/07/01 00:48:57;;;;;;;12.40;11.05;;;;;;;23.17;63.46;98728.30;1756662;81;20977;-44
2021/07/01 00:51:24;;;;;;;16.93;10.85;;;;;;;23.05;63.96;98745.01;1756642;81;21088;-45
2021/07/01 00:53:51;;;;;;;14.00;10.28;;;;;;;22.98;64.61;98735.64;1756501;81;21164;-44
2021/07/01 00:56:19;;;;;;;12.50;10.18;;;;;;;22.92;64.94;98727.95;1727121;81;20976;-45
2021/07/01 00:58:46;;;;;;;12.75;10.72;;;;;;;22.97;65.02;98733.48;1756350;81;20961;-44
2021/07/01 01:01:13;;;;;;;11.75;10.55;;;;;;;23.01;65.13;98728.58;1762500;81;20971;-45
2021/07/01 01:03:40;;;;;;;13.65;10.38;;;;;;;23.04;64.96;98721.37;1754857;81;21013;-45
2021/07/01 01:06:07;;;;;;;12.63;10.40;;;;;;;23.04;64.64;98704.17;1754769;81;21768;-45
2021/07/01 01:08:36;;;;;;;14.07;10.15;;;;;;;23.03;64.60;98699.87;1754439;81;21041;-45
2021/07/01 01:11:03;;;;;;;13.60;9.25;;;;;;;23.05;64.61;98688.33;1756312;81;21028;-44
2021/07/01 01:13:43;;;;;;;11.65;10.45;;;;;;;23.02;64.86;98684.50;1756016;81;21092;-44
2021/07/01 01:16:20;;;;;;;14.47;11.20;;;;;;;23.02;65.04;98680.36;1754319;81;27194;-44
2021/07/01 01:18:49;;;;;;;12.13;10.82;;;;;;;23.04;65.16;98666.08;1756142;81;21256;-44
2021/07/01 01:21:17;;;;;;;13.50;11.28;;;;;;;23.03;65.03;98659.01;1754952;81;21041;-44
2021/07/01 01:23:44;;;;;;;12.70;11.30;;;;;;;23.01;64.98;98653.16;1722506;81;21012;-45
2021/07/01 01:26:12;;;;;;;18.05;10.98;;;;;;;22.98;64.95;98643.03;1756641;81;21285;-44
2021/07/01 01:28:57;;;;;;;12.37;11.15;;;;;;;22.93;65.00;98634.73;1717867;81;21555;-44
2021/07/01 01:31:27;;;;;;;12.15;10.70;;;;;;;22.92;65.13;98629.05;1754682;81;21013;-44
2021/07/01 01:33:54;;;;;;;16.82;11.12;;;;;;;22.89;65.15;98623.84;1747125;80;20968;-45
2021/07/01 01:36:22;;;;;;;13.38;12.07;;;;;;;22.86;65.24;98626.12;1788162;80;21064;-44
2021/07/01 01:38:52;;;;;;;14.13;11.35;;;;;;;22.82;65.31;98626.89;1761864;80;20977;-44
2021/07/01 01:41:29;;;;;;;12.65;10.82;;;;;;;22.80;65.43;98631.36;1756569;81;21017;-44
2021/07/01 01:43:56;;;;;;;14.70;11.12;;;;;;;22.81;65.46;98630.88;1756454;81;21134;-45
2021/07/01 01:46:23;;;;;;;15.50;11.40;;;;;;;22.84;65.20;98638.27;1756374;81;22211;-44
2021/07/01 01:48:54;;;;;;;13.83;11.63;;;;;;;22.85;65.07;98627.34;1756267;81;21107;-44
2021/07/01 01:51:21;;;;;;;13.75;11.48;;;;;;;22.85;65.06;98629.37;1756780;81;20980;-44
2021/07/01 01:53:51;;;;;;;16.93;12.33;;;;;;;22.83;65.13;98629.05;1756746;81;21581;-45
2021/07/01 01:56:20;;;;;;;14.00;11.25;;;;;;;22.80;65.22;98631.36;1734792;81;21721;-45
2021/07/01 01:58:49;;;;;;;14.03;10.88;;;;;;;22.78;65.34;98632.42;1750299;81;20953;-44
2021/07/01 02:01:34;;;;;;;14.03;11.03;;;;;;;22.81;65.40;98636.41;1756255;81;21000;-44
2021/07/01 02:04:04;;;;;;;14.78;11.95;;;;;;;22.85;65.45;98627.98;1756283;81;20990;-45
2021/07/01 02:06:38;;;;;;;13.32;11.57;;;;;;;22.87;65.45;98639.34;1750005;81;21068;-45
2021/07/01 02:09:05;;;;;;;13.95;11.80;;;;;;;22.80;65.36;98660.37;1754899;81;21120;-44
2021/07/01 02:11:34;;;;;;;14.90;11.38;;;;;;;22.57;65.88;98667.19;1753486;81;21534;-45
2021/07/01 02:14:01;;;;;;;16.05;11.22;;;;;;;22.35;66.51;98677.57;1754890;81;21057;-44
2021/07/01 02:16:33;;;;;;;14.05;11.90;;;;;;;22.19;67.04;98679.95;1706098;81;21132;-44
2021/07/01 02:19:00;;;;;;;15.53;11.50;;;;;;;22.03;67.44;98693.38;1751988;81;21029;-45
2021/07/01 02:21:27;;;;;;;14.28;12.88;;;;;;;21.91;67.85;98690.08;1756412;81;21093;-45
2021/07/01 02:23:54;;;;;;;13.32;11.93;;;;;;;21.81;68.26;98689.86;1756317;81;21016;-44
2021/07/01 02:26:22;;;;;;;16.20;11.73;;;;;;;21.75;68.40;98700.55;1755092;81;21013;-45
2021/07/01 02:28:48;;;;;;;13.38;11.97;;;;;;;21.76;68.56;98700.09;1754645;81;21492;-45
2021/07/01 02:31:29;;;;;;;15.80;12.80;;;;;;;21.80;68.53;98700.73;1754363;81;21905;-45
2021/07/01 02:33:56;;;;;;;15.18;13.43;;;;;;;21.77;68.65;98703.03;1756527;81;21135;-45
2021/07/01 02:36:25;;;;;;;19.62;12.58;;;;;;;21.77;68.83;98709.15;1754709;81;21571;-44
2021/07/01 02:39:09;;;;;;;13.53;11.75;;;;;;;21.78;69.01;98710.70;1681984;85;21069;-44
2021/07/01 02:41:37;;;;;;;15.58;12.15;;;;;;;21.83;69.08;98718.39;1732762;81;20994;-45
2021/07/01 02:44:05;;;;;;;13.45;12.05;;;;;;;21.80;69.04;98719.28;1754999;80;21508;-44
2021/07/01 02:46:50;;;;;;;14.73;13.30;;;;;;;21.65;69.41;98721.17;1756355;81;21165;-45
2021/07/01 02:49:21;;;;;;;15.18;13.30;;;;;;;21.51;70.13;98727.81;1755304;81;21484;-45
2021/07/01 02:51:53;;;;;;;14.47;12.85;;;;;;;21.41;70.43;98741.36;1754179;81;20929;-44
2021/07/01 02:54:20;;;;;;;15.17;13.13;;;;;;;21.37;70.72;98747.01;1754824;81;21006;-45
2021/07/01 02:56:48;;;;;;;16.52;13.50;;;;;;;21.35;70.97;98744.55;1786175;80;21223;-45
2021/07/01 02:59:17;;;;;;;19.37;13.62;;;;;;;21.36;71.35;98746.06;1754908;80;21802;-45
2021/07/01 03:02:01;;;;;;;16.73;12.82;;;;;;;21.41;71.45;98759.28;1672549;85;21038;-45
2021/07/01 03:04:29;;;;;;;12.47;11.15;;;;;;;21.47;71.66;98751.38;1728053;81;20933;-44
2021/07/01 03:06:56;;;;;;;15.10;13.38;;;;;;;21.52;71.88;98759.09;1754755;81;21041;-44
2021/07/01 03:09:24;;;;;;;16.25;13.32;;;;;;;21.56;71.97;98761.11;1754648;81;21013;-44
2021/07/01 03:11:53;;;;;;;16.15;13.62;;;;;;;21.57;72.25;98761.88;1754672;81;20973;-44
2021/07/01 03:14:20;;;;;;;16.40;12.85;;;;;;;21.57;72.42;98770.93;1754594;81;20953;-45
2021/07/01 03:16:49;;;;;;;15.53;12.43;;;;;;;21.61;72.61;98773.55;1755555;81;21523;-45
2021/07/01 03:19:17;;;;;;;19.35;13.53;;;;;;;21.68;72.54;98770.56;1756218;81;20941;-45
2021/07/01 03:22:03;;;;;;;15.30;13.48;;;;;;;21.76;72.44;98769.08;1756455;81;21096;-45
2021/07/01 03:24:30;;;;;;;14.38;12.70;;;;;;;21.80;72.37;98774.46;1735375;81;21802;-45
2021/07/01 03:27:00;;;;;;;13.38;11.48;;;;;;;21.88;72.26;98777.15;1730134;81;21042;-45
2021/07/01 03:29:27;;;;;;;15.15;12.07;;;;;;;21.94;72.06;98783.03;1726681;82;21537;-45
2021/07/01 03:31:54;;;;;;;14.83;11.95;;;;;;;21.99;72.10;98787.97;1726456;82;21027;-45
2021/07/01 03:34:21;;;;;;;15.93;13.18;;;;;;;22.04;71.95;98790.16;1726227;81;21041;-45
2021/07/01 03:36:47;;;;;;;14.65;11.73;;;;;;;22.06;71.86;98791.87;1747929;81;21113;-45
2021/07/01 03:39:33;;;;;;;13.45;11.57;;;;;;;22.10;71.86;98785.59;1754486;81;21038;-45
2021/07/01 03:42:02;;;;;;;13.70;11.83;;;;;;;22.15;71.76;98793.14;1754618;81;21049;-45
2021/07/01 03:44:29;;;;;;;17.87;13.05;;;;;;;22.19;71.81;98793.77;1764025;80;21526;-45
2021/07/01 03:46:55;;;;;;;14.30;12.82;;;;;;;22.25;71.67;98785.84;1786409;80;21012;-45
2021/07/01 03:49:22;;;;;;;14.43;13.03;;;;;;;22.31;71.37;98797.08;1741311;81;22424;-45
2021/07/01 03:52:08;;;;;;;13.98;12.05;;;;;;;22.28;71.36;98797.95;1756814;81;21016;-45
2021/07/01 03:54:36;;;;;;;15.18;11.95;;;;;;;22.27;71.51;98803.34;1756171;81;21555;-45
2021/07/01 03:57:05;;;;;;;14.20;11.78;;;;;;;22.36;71.27;98805.55;1755124;81;21574;-45
2021/07/01 03:59:35;;;;;;;14.40;12.60;;;;;;;22.45;71.23;98793.77;1755910;81;21072;-45
2021/07/01 04:02:12;;;;;;;15.38;12.85;;;;;;;22.54;70.97;98799.34;1711394;82;21899;-45
2021/07/01 04:04:39;;;;;;;14.95;13.50;;;;;;;22.58;70.75;98797.20;1744522;81;21033;-45
2021/07/01 04:07:07;;;;;;;15.23;12.18;;;;;;;22.64;70.60;98791.25;1749847;81;20978;-45
2021/07/01 04:09:36;;;;;;;14.03;12.58;;;;;;;22.72;70.39;98795.30;1743012;81;21079;-45
2021/07/01 04:12:10;;;;;;;14.05;12.65;;;;;;;22.82;70.05;98793.33;1742707;81;21089;-45
2021/07/01 04:14:38;;;;;;;15.13;13.53;;;;;;;22.88;69.84;98796.44;1741626;81;21271;-45
2021/07/01 04:17:23;;;;;;;15.85;14.07;;;;;;;22.90;69.48;98793.20;1731126;81;20938;-45
2021/07/01 04:20:09;;;;;;;14.35;12.95;;;;;;;22.89;69.40;98799.36;1741349;82;20922;-45
2021/07/01 04:22:54;;;;;;;14.38;12.88;;;;;;;22.84;69.57;98811.63;1713659;81;21550;-45
2021/07/01 04:25:39;;;;;;;15.43;13.48;;;;;;;22.82;69.76;98813.45;1710200;82;21111;-45
2021/07/01 04:28:07;;;;;;;14.87;13.22;;;;;;;22.83;69.82;98806.70;1723581;81;21153;-45
2021/07/01 04:30:34;;;;;;;19.15;14.53;;;;;;;22.84;69.89;98808.25;1743123;82;20969;-45
2021/07/01 04:33:21;;;;;;;13.95;12.65;;;;;;;22.85;69.73;98805.63;1742527;82;21854;-45
2021/07/01 04:35:48;;;;;;;13.10;11.70;;;;;;;22.86;69.59;98809.16;1743369;82;21073;-45
2021/07/01 04:38:18;;;;;;;13.45;11.93;;;;;;;22.94;69.51;98810.43;1742737;81;21085;-45
2021/07/01 04:40:45;;;;;;;15.05;13.25;;;;;;;23.01;69.24;98803.83;1741619;82;21179;-45
2021/07/01 04:43:11;;;;;;;14.87;12.95;;;;;;;22.98;69.29;98799.22;1741885;82;20919;-45
2021/07/01 04:45:38;;;;;;;14.58;12.00;;;;;;;22.97;69.23;98802.59;1742871;81;20954;-45
2021/07/01 04:48:08;;;;;;;15.43;12.75;;;;;;;22.96;68.92;98800.45;1742945;81;21009;-45
2021/07/01 04:50:35;;;;;;;14.50;12.28;;;;;;;23.03;68.48;98795.86;1743294;82;21611;-45
2021/07/01 04:53:09;;;;;;;17.07;12.75;;;;;;;23.08;68.15;98787.73;1712352;81;21188;-45
2021/07/01 04:55:54;;;;;;;14.47;12.75;;;;;;;23.09;68.04;98797.55;1727841;80;20969;-45
2021/07/01 04:58:41;;;;;;;13.90;11.38;;;;;;;23.11;67.85;98801.25;1736127;81;21030;-45
2021/07/01 05:01:16;;;;;;;15.32;10.98;;;;;;;23.13;68.01;98808.48;1713400;81;21034;-45
2021/07/01 05:03:58;;;;;;;15.28;12.00;;;;;;;23.17;67.96;98800.81;1741607;82;21042;-46
2021/07/01 05:06:25;;;;;;;14.73;12.37;;;;;;;23.23;67.91;98798.98;1742667;81;22313;-45
2021/07/01 05:08:52;;;;;;;14.35;12.88;;;;;;;23.30;68.06;98802.21;1741624;81;20930;-45
2021/07/01 05:11:18;;;;;;;16.85;11.97;;;;;;;23.41;67.48;98804.54;1713952;82;21501;-45
2021/07/01 05:13:45;;;;;;;13.55;11.90;;;;;;;23.50;67.10;98808.72;1742785;81;20942;-46
2021/07/01 05:16:14;;;;;;;15.45;12.50;;;;;;;23.62;67.49;98814.74;1743382;81;21081;-46
2021/07/01 05:18:40;;;;;;;14.63;12.55;;;;;;;23.71;67.28;98821.66;1735410;81;21186;-45
2021/07/01 05:21:18;;;;;;;18.52;13.28;;;;;;;23.70;66.89;98820.12;1734676;82;20962;-45
2021/07/01 05:23:54;;;;;;;14.85;12.68;;;;;;;23.69;66.83;98819.19;1749915;80;20972;-45
2021/07/01 05:26:38;;;;;;;15.70;13.13;;;;;;;23.69;66.77;98817.80;1770753;80;21101;-45
2021/07/01 05:29:24;;;;;;;14.07;12.68;;;;;;;23.72;66.96;98818.28;1743189;81;21535;-45
2021/07/01 05:32:09;;;;;;;14.75;12.75;;;;;;;23.78;66.77;98818.57;1743333;81;21144;-45
2021/07/01 05:34:40;;;;;;;15.65;13.83;;;;;;;23.80;66.09;98817.51;1727937;81;20965;-45
2021/07/01 05:37:07;;;;;;;15.63;14.05;;;;;;;23.85;65.99;98822.27;1736815;82;20993;-46
2021/07/01 05:39:35;;;;;;;16.73;15.13;;;;;;;23.86;66.25;98818.28;1743132;82;21014;-45
2021/07/01 05:42:04;;;;;;;15.78;14.18;;;;;;;23.92;66.77;98821.33;1742263;81;21053;-45
2021/07/01 05:44:32;;;;;;;15.83;14.13;;;;;;;24.00;66.56;98813.50;1714791;82;21088;-45
2021/07/01 05:46:59;;;;;;;18.75;14.60;;;;;;;24.09;66.24;98821.17;1742989;82;21465;-45
2021/07/01 05:49:25;;;;;;;16.25;14.55;;;;;;;24.18;65.88;98823.19;1742977;81;21645;-45
2021/07/01 05:51:56;;;;;;;17.95;15.88;;;;;;;24.25;65.97;98829.16;1743705;81;21065;-45
2021/07/01 05:54:28;;;;;;;16.42;14.65;;;;;;;24.31;66.31;98831.31;1743028;81;21511;-45
2021/07/01 05:56:51;;;;;;;15.70;14.07;;;;;;;24.32;66.07;98830.85;1742922;81;21182;-45
2021/07/01 05:59:20;;;;;;;15.55;13.88;;;;;;;24.40;66.09;98827.90;1741684;81;21017;-45
2021/07/01 06:01:47;;;;;;;15.58;14.07;;;;;;;24.48;65.58;98831.91;1743164;82;21041;-45
2021/07/01 06:04:13;;;;;;;15.15;13.55;;;;;;;24.51;65.82;98842.66;1743073;82;21021;-45
2021/07/01 06:06:58;;;;;;;15.00;13.60;;;;;;;24.53;66.26;98845.74;1743485;81;21444;-45
2021/07/01 06:09:28;;;;;;;14.80;13.30;;;;;;;24.59;66.05;98849.43;1742301;81;21469;-45
2021/07/01 06:11:58;;;;;;;13.40;12.00;;;;;;;24.59;66.16;98851.56;1743390;81;20977;-45
2021/07/01 06:14:26;;;;;;;15.20;13.25;;;;;;;24.59;65.80;98849.43;1713293;82;20938;-45
2021/07/01 06:16:54;;;;;;;16.00;13.43;;;;;;;24.54;65.82;98845.91;1717091;82;21520;-45
2021/07/01 06:19:21;;;;;;;16.67;12.78;;;;;;;24.45;65.53;98838.36;1734569;82;21432;-45
2021/07/01 06:21:49;;;;;;;16.07;13.00;;;;;;;24.39;65.88;98841.63;1741595;81;21281;-45
2021/07/01 06:24:16;;;;;;;15.03;13.08;;;;;;;24.35;66.19;98836.09;1742614;81;21079;-45
2021/07/01 06:26:45;;;;;;;15.40;13.45;;;;;;;24.39;66.15;98836.70;1743290;81;21590;-45
2021/07/01 06:29:11;;;;;;;14.25;12.85;;;;;;;24.41;65.86;98847.45;1713608;82;21024;-45
2021/07/01 06:31:39;;;;;;;15.95;14.25;;;;;;;24.39;65.94;98841.63;1713646;82;21629;-45
2021/07/01 06:34:05;;;;;;;17.05;13.48;;;;;;;24.37;66.14;98841.31;1719141;82;21125;-45
2021/07/01 06:36:38;;;;;;;13.83;12.23;;;;;;;24.39;65.99;98840.24;1743062;82;21005;-45
2021/07/01 06:39:24;;;;;;;15.28;11.50;;;;;;;24.43;65.22;98836.69;1713330;83;21020;-45
2021/07/01 06:41:55;;;;;;;12.82;11.53;;;;;;;24.43;64.74;98846.39;1712023;81;21566;-45
2021/07/01 06:44:41;;;;;;;13.00;11.18;;;;;;;24.41;64.96;98839.76;1734742;80;21092;-45
2021/07/01 06:47:28;;;;;;;12.93;9.78;;;;;;;24.39;64.35;98834.70;1713458;83;21822;-45
2021/07/01 06:50:15;;;;;;;14.05;11.05;;;;;;;24.43;64.14;98832.53;1739561;81;20975;-45
2021/07/01 06:52:54;;;;;;;13.32;10.88;;;;;;;24.50;63.99;98829.42;1703849;83;21032;-45
2021/07/01 06:55:35;;;;;;;14.60;11.78;;;;;;;24.59;64.46;98828.64;1711209;82;20982;-46
2021/07/01 06:58:05;;;;;;;13.95;11.38;;;;;;;24.67;64.16;98826.45;1726389;81;21303;-46
2021/07/01 07:00:32;;;;;;;11.57;10.32;;;;;;;24.74;63.80;98827.36;1741259;81;21128;-45
2021/07/01 07:02:58;;;;;;;11.85;9.58;;;;;;;24.80;63.23;98810.98;1741903;82;21575;-46
2021/07/01 07:05:26;;;;;;;13.22;9.90;;;;;;;24.92;63.39;98803.73;1741448;82;20962;-45
2021/07/01 07:07:54;;;;;;;9.98;8.98;;;;;;;25.04;62.16;98802.73;1741786;82;21625;-46
2021/07/01 07:10:22;;;;;;;10.55;9.45;;;;;;;25.15;62.22;98805.77;1743213;81;20923;-46
2021/07/01 07:12:53;;;;;;;10.43;9.35;;;;;;;25.26;61.66;98806.02;1743345;81;21104;-46
2021/07/01 07:15:28;;;;;;;11.28;10.10;;;;;;;25.38;61.39;98809.77;1742608;81;20981;-45
2021/07/01 07:17:56;;;;;;;10.08;8.15;;;;;;;25.47;61.17;98802.77;1730975;82;21037;-45
2021/07/01 07:23:19;;;;;;;8.68;7.67;;;;;;;25.63;60.00;98782.95;1795342;79;22788;-45
2021/07/01 07:25:47;;;;;;;9.60;7.80;;;;;;;25.67;60.27;98791.08;1753867;80;20946;-45
2021/07/01 07:28:18;;;;;;;11.28;8.60;;;;;;;25.88;59.96;98791.38;1755152;81;21827;-45
2021/07/01 07:30:45;;;;;;;13.35;7.90;;;;;;;26.06;59.25;98783.48;1755077;81;21001;-45
2021/07/01 07:33:11;;;;;;;7.08;6.35;;;;;;;26.20;58.91;98781.33;1762865;80;21486;-45
2021/07/01 07:35:38;;;;;;;8.55;5.87;;;;;;;26.33;56.72;98780.47;1758877;80;21649;-45
2021/07/01 07:38:06;;;;;;;6.58;5.87;;;;;;;26.44;54.84;98777.84;1757027;80;20976;-45
2021/07/01 07:40:33;;;;;;;9.73;5.97;;;;;;;26.55;55.28;98776.64;1756879;81;21149;-45
2021/07/01 07:43:03;;;;;;;8.70;5.17;;;;;;;26.64;55.13;98775.14;1756174;80;20969;-45
2021/07/01 07:45:28;;;;;;;7.55;5.20;;;;;;;26.75;54.20;98774.55;1756061;81;20986;-45
2021/07/01 07:47:55;;;;;;;5.95;5.20;;;;;;;26.82;52.42;98772.73;1756953;80;21551;-45
2021/07/01 07:50:22;;;;;;;6.95;5.42;;;;;;;26.88;52.98;98770.84;1756672;81;21052;-45
2021/07/01 07:52:50;;;;;;;7.83;5.10;;;;;;;26.98;52.57;98762.52;1756826;81;21789;-45
2021/07/01 07:55:19;;;;;;;7.30;5.20;;;;;;;27.03;52.54;98761.83;1756763;81;20981;-45
2021/07/01 07:57:51;;;;;;;8.98;5.53;;;;;;;27.10;52.09;98762.81;1738029;81;21004;-45
2021/07/01 08:00:19;;;;;;;8.90;5.60;;;;;;;27.19;52.56;98765.47;1757051;80;21060;-45
2021/07/01 08:02:53;;;;;;;11.33;5.55;;;;;;;27.22;51.28;98770.05;1756888;81;20968;-45
2021/07/01 08:05:23;;;;;;;6.85;4.92;;;;;;;27.20;51.14;98768.39;1756739;81;21115;-45
2021/07/01 08:07:51;;;;;;;6.10;5.17;;;;;;;27.20;51.80;98766.23;1716101;83;21913;-45
2021/07/01 08:10:19;;;;;;;5.20;4.70;;;;;;;27.22;50.86;98770.05;1698519;83;21015;-45
2021/07/01 08:12:51;;;;;;;6.22;4.90;;;;;;;27.28;50.82;98769.34;1721421;83;20968;-45
2021/07/01 08:15:20;;;;;;;6.85;4.70;;;;;;;27.33;50.95;98767.27;1723393;83;21518;-45
2021/07/01 08:17:54;;;;;;;10.08;5.30;;;;;;;27.40;50.88;98762.03;1723687;83;21080;-45
2021/07/01 08:20:23;;;;;;;6.37;4.72;;;;;;;27.44;49.33;98756.27;1707821;83;21015;-45
2021/07/01 08:22:52;;;;;;;7.20;4.85;;;;;;;27.50;50.32;98757.88;1709555;83;20972;-45
2021/07/01 08:25:20;;;;;;;6.72;4.70;;;;;;;27.58;50.60;98749.26;1687516;83;21023;-45
2021/07/01 08:27:48;;;;;;;5.67;5.00;;;;;;;27.71;50.66;98758.63;1732112;81;21535;-45
2021/07/01 08:30:19;;;;;;;6.45;4.85;;;;;;;27.82;50.65;98752.41;1750021;82;21154;-45
2021/07/01 08:32:47;;;;;;;7.33;4.22;;;;;;;27.98;50.31;98755.34;1750152;82;21018;-45
2021/07/01 08:35:16;;;;;;;4.67;4.10;;;;;;;28.15;49.18;98764.53;1749946;82;21591;-45
2021/07/01 08:37:46;;;;;;;6.92;4.95;;;;;;;28.19;49.09;98765.06;1750700;81;20938;-45
2021/07/01 08:40:18;;;;;;;6.10;3.42;;;;;;;28.29;50.00;98758.83;1741933;81;21767;-45
2021/07/01 08:42:45;;;;;;;6.10;3.87;;;;;;;28.42;48.51;98766.78;1750044;81;21092;-45
2021/07/01 08:45:14;;;;;;;7.58;4.20;;;;;;;28.55;48.39;98769.17;1750382;80;20959;-45
2021/07/01 08:47:43;;;;;;;8.35;4.10;;;;;;;28.66;47.04;98774.84;1748303;81;20969;-45
2021/07/01 08:50:17;;;;;;;7.75;4.00;;;;;;;28.66;46.94;98773.45;1744199;81;20993;-45
2021/07/01 08:53:05;;;;;;;6.95;4.60;;;;;;;28.64;47.92;98768.36;1743077;82;21029;-45
2021/07/01 08:55:32;;;;;;;6.47;4.40;;;;;;;28.71;48.27;98767.91;1730286;82;21508;-45
2021/07/01 08:58:00;;;;;;;8.13;4.55;;;;;;;28.79;46.59;98773.19;1733977;81;20962;-45
2021/07/01 09:00:28;;;;;;;8.10;4.58;;;;;;;28.77;48.36;98768.72;1750080;81;21567;-45
2021/07/01 09:03:09;;;;;;;6.30;3.83;;;;;;;28.81;48.96;98760.88;1750798;81;20990;-45
2021/07/01 09:05:38;;;;;;;6.60;4.22;;;;;;;28.91;48.68;98769.19;1749591;82;21041;-45
2021/07/01 09:08:13;;;;;;;8.83;4.62;;;;;;;29.02;47.12;98757.33;1749729;82;21106;-45
2021/07/01 09:10:47;;;;;;;7.70;4.78;;;;;;;29.11;47.87;98758.52;1749641;82;21064;-45
2021/07/01 09:13:14;;;;;;;9.90;4.80;;;;;;;29.15;47.65;98755.48;1750384;80;21044;-45
2021/07/01 09:15:41;;;;;;;6.72;4.92;;;;;;;29.13;48.62;98755.23;1686950;83;21004;-45
2021/07/01 09:18:09;;;;;;;5.40;4.17;;;;;;;29.14;48.84;98752.58;1715153;83;21088;-45
2021/07/01 09:20:38;;;;;;;6.77;4.00;;;;;;;29.23;47.41;98756.55;1715354;83;22188;-45
2021/07/01 09:23:09;;;;;;;5.33;3.75;;;;;;;29.27;48.11;98749.46;1686204;85;21000;-45
2021/07/01 09:25:37;;;;;;;5.30;4.05;;;;;;;29.41;48.71;98738.63;1686539;85;21541;-45
2021/07/01 09:28:05;;;;;;;6.97;4.20;;;;;;;29.57;48.66;98744.27;1699943;83;21004;-45
2021/07/01 09:30:33;;;;;;;7.12;4.15;;;;;;;29.77;47.37;98736.32;1708110;83;21510;-45
2021/07/01 09:33:06;;;;;;;7.15;4.10;;;;;;;29.89;47.62;98732.92;1744872;82;21145;-45
2021/07/01 09:35:35;;;;;;;7.87;4.10;;;;;;;30.05;47.13;98730.80;1780014;80;20960;-45
2021/07/01 09:38:05;;;;;;;7.20;3.83;;;;;;;30.24;47.27;98731.81;1748003;82;21734;-45
2021/07/01 09:40:33;;;;;;;9.55;4.65;;;;;;;30.44;46.76;98732.95;1715649;83;21551;-45
2021/07/01 09:43:05;;;;;;;8.48;4.05;;;;;;;30.56;45.66;98730.28;1700572;83;21519;-45
2021/07/01 09:45:34;;;;;;;6.55;4.10;;;;;;;30.61;45.27;98734.34;1697156;83;21104;-45
2021/07/01 09:48:12;;;;;;;8.28;4.10;;;;;;;30.61;43.32;98725.31;1721529;83;21037;-45
2021/07/01 09:50:48;;;;;;;5.72;4.30;;;;;;;30.57;43.87;98731.05;1721435;82;21527;-45
2021/07/01 09:53:30;;;;;;;5.97;3.55;;;;;;;30.55;44.15;98734.34;1749462;82;20969;-45
2021/07/01 09:56:04;;;;;;;5.92;4.20;;;;;;;30.52;44.35;98724.19;1749545;82;21069;-45
2021/07/01 09:58:32;;;;;;;9.70;4.03;;;;;;;30.52;43.74;98714.40;1743562;81;21134;-45
2021/07/01 10:00:59;;;;;;;5.97;4.00;;;;;;;30.54;44.41;98715.30;1751100;82;21511;-45
2021/07/01 10:03:26;;;;;;;8.03;4.22;;;;;;;30.60;44.26;98720.22;1750628;81;20965;-45
2021/07/01 10:05:53;;;;;;;6.70;4.67;;;;;;;30.62;43.88;98708.66;1751013;81;20994;-45
2021/07/01 10:08:20;;;;;;;6.42;5.08;;;;;;;30.65;44.34;98713.86;1751229;81;21045;-46
2021/07/01 10:10:52;;;;;;;7.47;4.87;;;;;;;30.62;43.78;98708.66;1713119;83;20934;-45
2021/07/01 10:13:20;;;;;;;8.68;5.60;;;;;;;30.60;44.10;98707.63;1709598;83;20977;-45
2021/07/01 10:15:52;;;;;;;8.35;4.87;;;;;;;30.58;44.02;98699.77;1715102;83;21531;-45
2021/07/01 10:18:20;;;;;;;;;;;;;;;30.63;45.84;98697.59;1717649;83;21005;-45
2021/07/01 10:20:49;;;;;;;;;;;;;;;30.75;46.33;98698.31;1701968;84;20165;-45
2021/07/01 10:23:33;;;;;;;6.65;4.28;;;;;;;30.81;45.26;98700.47;1699326;84;21124;-45
2021/07/01 10:26:11;;;;;;;7.75;4.50;;;;;;;30.89;44.63;98697.89;1706847;84;20938;-45
2021/07/01 10:28:38;;;;;;;8.50;4.37;;;;;;;31.09;44.37;98690.59;1707426;83;21029;-45
2021/07/01 10:31:13;;;;;;;7.80;4.33;;;;;;;31.28;44.78;98693.56;1679235;84;21078;-45
2021/07/01 10:33:42;;;;;;;6.25;4.30;;;;;;;31.41;44.40;98696.57;1701436;83;21081;-45
2021/07/01 10:36:21;;;;;;;5.80;3.98;;;;;;;31.46;43.50;98692.34;1707096;84;20977;-45
2021/07/01 10:38:51;;;;;;;7.20;4.20;;;;;;;31.46;43.69;98697.95;1707311;84;21571;-45
2021/07/01 10:41:32;;;;;;;8.00;4.22;;;;;;;31.50;43.80;98695.63;1707150;84;20977;-45
2021/07/01 10:44:00;;;;;;;6.50;4.30;;;;;;;31.53;43.86;98695.84;1692906;83;21028;-45
2021/07/01 10:46:45;;;;;;;5.83;3.85;;;;;;;31.47;43.87;98695.24;1678648;84;21128;-45
2021/07/01 10:49:12;;;;;;;5.58;3.70;;;;;;;31.33;44.19;98692.14;1688383;84;21056;-45
2021/07/01 10:51:55;;;;;;;4.80;3.45;;;;;;;31.27;43.80;98693.46;1688617;83;20961;-45
2021/07/01 10:54:22;;;;;;;4.50;3.27;;;;;;;31.27;42.87;98687.86;1690423;83;21034;-45
2021/07/01 10:56:54;;;;;;;7.05;3.45;;;;;;;31.27;41.96;98697.03;1710625;83;21064;-45
2021/07/01 10:59:21;;;;;;;4.60;3.30;;;;;;;31.25;40.40;98689.77;1713847;82;20954;-45
2021/07/01 11:01:52;;;;;;;4.97;3.37;;;;;;;31.26;41.00;98689.90;1750667;81;21124;-45
2021/07/01 11:04:20;;;;;;;6.95;3.22;;;;;;;31.32;41.46;98700.41;1751134;82;20894;-45
2021/07/01 11:07:01;;;;;;;4.53;3.47;;;;;;;31.34;41.29;98690.87;1750615;81;20970;-45
2021/07/01 11:09:42;;;;;;;4.20;2.98;;;;;;;31.39;41.96;98691.48;1750030;82;21025;-46
2021/07/01 11:12:09;;;;;;;6.37;2.72;;;;;;;31.50;41.54;98701.86;1746978;80;20953;-45
2021/07/01 11:14:42;;;;;;;6.83;2.87;;;;;;;31.58;40.94;98695.09;1750617;81;21197;-45
2021/07/01 11:17:10;;;;;;;4.55;2.60;;;;;;;31.65;41.00;98691.74;1749559;81;21688;-45
2021/07/01 11:19:45;;;;;;;7.47;2.60;;;;;;;31.78;41.71;98691.91;1749863;81;21053;-45
2021/07/01 11:22:13;;;;;;;6.40;2.83;;;;;;;31.92;41.48;98697.78;1749627;81;21013;-47
2021/07/01 11:24:42;;;;;;;3.55;2.50;;;;;;;32.05;40.93;98696.53;1782180;80;21075;-45
2021/07/01 11:27:09;;;;;;;4.70;2.58;;;;;;;32.21;41.22;98694.91;1785648;80;21785;-45
2021/07/01 11:29:46;;;;;;;5.28;2.62;;;;;;;32.39;40.75;98690.67;1755804;81;21032;-45
2021/07/01 11:32:21;;;;;;;4.72;2.55;;;;;;;32.57;40.07;98687.17;1756481;81;21045;-46
2021/07/01 11:34:49;;;;;;;5.00;2.60;;;;;;;32.73;39.54;98691.86;1756388;81;21008;-46
2021/07/01 11:37:38;;;;;;;6.00;2.90;;;;;;;32.87;38.79;98692.75;1756473;81;21016;-46
2021/07/01 11:40:19;;;;;;;4.17;2.58;;;;;;;32.90;38.04;98688.88;1755990;81;21147;-46
2021/07/01 11:42:50;;;;;;;8.13;2.72;;;;;;;32.85;36.82;98690.47;1756358;81;21539;-46
2021/07/01 11:45:18;;;;;;;4.03;2.50;;;;;;;32.84;37.00;98686.77;1720517;83;21027;-46